Guarani das Missoes, Brazil
Current Conditions -  °F | °C
As of 10:30 AM on Thursday 30 Oct 2014 (Local Time) from SGEN Reporting Station
Thunderstorm Thunderstorm  
Wind Chill: 68°   Ceiling: 2000
Heat Index: 68°   Visibility: 1.8mi
Dew Point: 66°   Wind: 9mph
Humidity: 94%   Direction: 140°SE
Pressure: 29.71"   Gusts: NA
Location:  28.14°S, 54.46°W
Report Text: SGEN 301230Z 14008KT 3000 TSRA OVC020 FEW040CB 20/19 Q1006
Loading
Personal Weather Stations






























Interactive Weather Map
Tropical Storm Tracking
New forecast layout! Learn more

10-Day Weather Forecast

Advertisements
Track Severe Weather on mobile